sensor_id;sensor_type;location;lat;lon;timestamp;temperature;humidity
20233;DHT22;37438;55.674;13.074;2023-08-31T00:01:28;15.60;99.90
20233;DHT22;37438;55.674;13.074;2023-08-31T00:04:32;15.60;99.90
20233;DHT22;37438;55.674;13.074;2023-08-31T00:07:37;15.50;99.90
20233;DHT22;37438;55.674;13.074;2023-08-31T00:10:42;15.50;99.90
20233;DHT22;37438;55.674;13.074;2023-08-31T00:13:46;15.50;99.90
20233;DHT22;37438;55.674;13.074;2023-08-31T00:16:51;15.50;99.90
20233;DHT22;37438;55.674;13.074;2023-08-31T00:19:55;15.40;99.90
20233;DHT22;37438;55.674;13.074;2023-08-31T00:23:00;15.40;99.90
20233;DHT22;37438;55.674;13.074;2023-08-31T00:26:05;15.30;99.90
20233;DHT22;37438;55.674;13.074;2023-08-31T00:29:10;15.40;99.90
20233;DHT22;37438;55.674;13.074;2023-08-31T00:32:15;15.50;99.90
20233;DHT22;37438;55.674;13.074;2023-08-31T00:35:21;15.50;99.90
20233;DHT22;37438;55.674;13.074;2023-08-31T00:38:27;15.50;99.90
20233;DHT22;37438;55.674;13.074;2023-08-31T00:41:32;15.50;99.90
20233;DHT22;37438;55.674;13.074;2023-08-31T00:44:36;15.50;99.90
20233;DHT22;37438;55.674;13.074;2023-08-31T00:47:41;15.60;99.90
20233;DHT22;37438;55.674;13.074;2023-08-31T00:50:46;15.60;99.90
20233;DHT22;37438;55.674;13.074;2023-08-31T00:53:52;15.60;99.90
20233;DHT22;37438;55.674;13.074;2023-08-31T00:56:59;15.60;99.90
20233;DHT22;37438;55.674;13.074;2023-08-31T01:00:05;15.60;99.90
20233;DHT22;37438;55.674;13.074;2023-08-31T01:10:11;15.50;99.90
20233;DHT22;37438;55.674;13.074;2023-08-31T01:13:23;15.50;99.90
20233;DHT22;37438;55.674;13.074;2023-08-31T01:16:29;15.30;99.90
20233;DHT22;37438;55.674;13.074;2023-08-31T01:19:43;15.30;99.90
20233;DHT22;37438;55.674;13.074;2023-08-31T01:23:00;15.30;99.90
20233;DHT22;37438;55.674;13.074;2023-08-31T01:26:07;15.30;99.90
20233;DHT22;37438;55.674;13.074;2023-08-31T01:29:11;15.30;99.90
20233;DHT22;37438;55.674;13.074;2023-08-31T01:32:17;15.20;99.90
20233;DHT22;37438;55.674;13.074;2023-08-31T01:35:22;15.20;99.90
20233;DHT22;37438;55.674;13.074;2023-08-31T01:38:27;15.30;99.90
20233;DHT22;37438;55.674;13.074;2023-08-31T01:41:34;15.30;99.90
20233;DHT22;37438;55.674;13.074;2023-08-31T01:44:40;15.20;99.90
20233;DHT22;37438;55.674;13.074;2023-08-31T01:47:45;15.20;99.90
20233;DHT22;37438;55.674;13.074;2023-08-31T01:50:50;15.20;99.90
20233;DHT22;37438;55.674;13.074;2023-08-31T01:53:54;15.10;99.90
20233;DHT22;37438;55.674;13.074;2023-08-31T01:56:59;15.20;99.90
20233;DHT22;37438;55.674;13.074;2023-08-31T02:00:05;15.20;99.90
20233;DHT22;37438;55.674;13.074;2023-08-31T02:03:17;15.10;99.90
20233;DHT22;37438;55.674;13.074;2023-08-31T02:06:21;15.10;99.90
20233;DHT22;37438;55.674;13.074;2023-08-31T02:09:26;15.00;99.90
20233;DHT22;37438;55.674;13.074;2023-08-31T02:12:30;15.00;99.90
20233;DHT22;37438;55.674;13.074;2023-08-31T02:15:39;14.90;99.90
20233;DHT22;37438;55.674;13.074;2023-08-31T02:18:43;14.90;99.90
20233;DHT22;37438;55.674;13.074;2023-08-31T02:21:48;14.80;99.90
20233;DHT22;37438;55.674;13.074;2023-08-31T02:24:52;14.80;99.90
20233;DHT22;37438;55.674;13.074;2023-08-31T02:27:56;14.70;99.90
20233;DHT22;37438;55.674;13.074;2023-08-31T02:31:02;14.70;99.90
20233;DHT22;37438;55.674;13.074;2023-08-31T02:34:08;14.70;99.90
20233;DHT22;37438;55.674;13.074;2023-08-31T02:37:12;14.70;99.90
20233;DHT22;37438;55.674;13.074;2023-08-31T02:40:16;14.60;99.90
20233;DHT22;37438;55.674;13.074;2023-08-31T02:43:21;14.70;99.90
20233;DHT22;37438;55.674;13.074;2023-08-31T02:46:26;14.60;99.90
20233;DHT22;37438;55.674;13.074;2023-08-31T02:49:30;14.70;99.90
20233;DHT22;37438;55.674;13.074;2023-08-31T02:52:35;14.60;99.90
20233;DHT22;37438;55.674;13.074;2023-08-31T02:55:41;14.70;99.90
20233;DHT22;37438;55.674;13.074;2023-08-31T02:58:46;14.70;99.90
20233;DHT22;37438;55.674;13.074;2023-08-31T03:01:50;14.60;99.90
20233;DHT22;37438;55.674;13.074;2023-08-31T03:04:55;14.60;99.90
20233;DHT22;37438;55.674;13.074;2023-08-31T03:08:01;14.50;99.90
20233;DHT22;37438;55.674;13.074;2023-08-31T03:11:05;14.50;99.90
20233;DHT22;37438;55.674;13.074;2023-08-31T03:14:11;14.50;99.90
20233;DHT22;37438;55.674;13.074;2023-08-31T03:17:15;14.40;99.90
20233;DHT22;37438;55.674;13.074;2023-08-31T03:20:19;14.40;99.90
20233;DHT22;37438;55.674;13.074;2023-08-31T03:23:24;14.50;99.90
20233;DHT22;37438;55.674;13.074;2023-08-31T03:26:29;14.70;99.90
20233;DHT22;37438;55.674;13.074;2023-08-31T03:29:34;14.90;99.90
20233;DHT22;37438;55.674;13.074;2023-08-31T03:32:39;14.80;99.90
20233;DHT22;37438;55.674;13.074;2023-08-31T03:35:43;14.60;99.90
20233;DHT22;37438;55.674;13.074;2023-08-31T03:38:47;14.70;99.90
20233;DHT22;37438;55.674;13.074;2023-08-31T03:41:52;14.70;99.90
20233;DHT22;37438;55.674;13.074;2023-08-31T03:44:56;14.70;99.90
20233;DHT22;37438;55.674;13.074;2023-08-31T03:48:01;14.80;99.90
20233;DHT22;37438;55.674;13.074;2023-08-31T03:51:06;14.80;99.90
20233;DHT22;37438;55.674;13.074;2023-08-31T03:54:10;14.70;99.90
20233;DHT22;37438;55.674;13.074;2023-08-31T03:57:16;14.80;99.90
20233;DHT22;37438;55.674;13.074;2023-08-31T04:00:22;15.00;99.90
20233;DHT22;37438;55.674;13.074;2023-08-31T04:03:26;15.20;99.90
20233;DHT22;37438;55.674;13.074;2023-08-31T04:06:31;15.10;99.90
20233;DHT22;37438;55.674;13.074;2023-08-31T04:09:35;14.90;99.90
20233;DHT22;37438;55.674;13.074;2023-08-31T04:12:40;14.90;99.90
20233;DHT22;37438;55.674;13.074;2023-08-31T04:15:46;14.90;99.90
20233;DHT22;37438;55.674;13.074;2023-08-31T04:18:52;14.90;99.90
20233;DHT22;37438;55.674;13.074;2023-08-31T04:21:57;14.90;99.90
20233;DHT22;37438;55.674;13.074;2023-08-31T04:25:01;14.80;99.90
20233;DHT22;37438;55.674;13.074;2023-08-31T04:28:05;14.80;99.90
20233;DHT22;37438;55.674;13.074;2023-08-31T04:31:10;14.90;99.90
20233;DHT22;37438;55.674;13.074;2023-08-31T04:34:14;14.80;99.90
20233;DHT22;37438;55.674;13.074;2023-08-31T04:37:20;14.90;99.90
20233;DHT22;37438;55.674;13.074;2023-08-31T04:40:25;14.90;99.90
20233;DHT22;37438;55.674;13.074;2023-08-31T04:43:29;14.90;99.90
20233;DHT22;37438;55.674;13.074;2023-08-31T04:46:33;14.90;99.90
20233;DHT22;37438;55.674;13.074;2023-08-31T04:49:38;15.10;99.90
20233;DHT22;37438;55.674;13.074;2023-08-31T04:52:43;15.10;99.90
20233;DHT22;37438;55.674;13.074;2023-08-31T04:55:47;15.10;99.90
20233;DHT22;37438;55.674;13.074;2023-08-31T04:58:52;15.10;99.90
20233;DHT22;37438;55.674;13.074;2023-08-31T05:01:57;15.30;99.90
20233;DHT22;37438;55.674;13.074;2023-08-31T05:05:01;15.30;99.90
20233;DHT22;37438;55.674;13.074;2023-08-31T05:08:08;15.40;99.90
20233;DHT22;37438;55.674;13.074;2023-08-31T05:11:12;15.40;99.90
20233;DHT22;37438;55.674;13.074;2023-08-31T05:14:17;15.50;99.90
20233;DHT22;37438;55.674;13.074;2023-08-31T05:17:21;15.60;99.90
20233;DHT22;37438;55.674;13.074;2023-08-31T05:20:26;15.70;99.90
20233;DHT22;37438;55.674;13.074;2023-08-31T05:23:31;15.80;99.90
20233;DHT22;37438;55.674;13.074;2023-08-31T05:26:36;15.80;99.90
20233;DHT22;37438;55.674;13.074;2023-08-31T05:29:41;15.90;99.90
20233;DHT22;37438;55.674;13.074;2023-08-31T05:32:45;16.00;99.90
20233;DHT22;37438;55.674;13.074;2023-08-31T05:35:50;16.20;99.90
20233;DHT22;37438;55.674;13.074;2023-08-31T05:38:54;16.20;99.90
20233;DHT22;37438;55.674;13.074;2023-08-31T05:41:59;16.40;99.90
20233;DHT22;37438;55.674;13.074;2023-08-31T05:45:05;16.50;99.90
20233;DHT22;37438;55.674;13.074;2023-08-31T05:48:10;16.60;99.90
20233;DHT22;37438;55.674;13.074;2023-08-31T05:51:15;16.70;99.90
20233;DHT22;37438;55.674;13.074;2023-08-31T05:54:19;16.90;99.90
20233;DHT22;37438;55.674;13.074;2023-08-31T05:57:26;17.10;99.90
20233;DHT22;37438;55.674;13.074;2023-08-31T06:00:32;17.10;99.90
20233;DHT22;37438;55.674;13.074;2023-08-31T06:03:36;17.30;99.90
20233;DHT22;37438;55.674;13.074;2023-08-31T06:06:40;17.60;99.90
20233;DHT22;37438;55.674;13.074;2023-08-31T06:09:45;18.10;99.90
20233;DHT22;37438;55.674;13.074;2023-08-31T06:12:50;18.10;99.90
20233;DHT22;37438;55.674;13.074;2023-08-31T06:15:54;18.60;99.90
20233;DHT22;37438;55.674;13.074;2023-08-31T06:19:00;18.90;99.90
20233;DHT22;37438;55.674;13.074;2023-08-31T06:22:05;19.10;99.90
20233;DHT22;37438;55.674;13.074;2023-08-31T06:25:09;19.30;99.90
20233;DHT22;37438;55.674;13.074;2023-08-31T06:28:15;19.80;99.90
20233;DHT22;37438;55.674;13.074;2023-08-31T06:31:20;20.00;99.90
20233;DHT22;37438;55.674;13.074;2023-08-31T06:34:25;19.60;99.90
20233;DHT22;37438;55.674;13.074;2023-08-31T06:37:29;19.50;99.90
20233;DHT22;37438;55.674;13.074;2023-08-31T06:40:33;19.60;99.90
20233;DHT22;37438;55.674;13.074;2023-08-31T06:43:38;19.70;99.90
20233;DHT22;37438;55.674;13.074;2023-08-31T06:46:43;20.00;99.90
20233;DHT22;37438;55.674;13.074;2023-08-31T06:49:48;20.40;99.90
20233;DHT22;37438;55.674;13.074;2023-08-31T06:52:52;20.60;99.90
20233;DHT22;37438;55.674;13.074;2023-08-31T06:55:56;21.20;99.90
20233;DHT22;37438;55.674;13.074;2023-08-31T06:59:02;21.40;99.90
20233;DHT22;37438;55.674;13.074;2023-08-31T07:02:10;21.40;99.90
20233;DHT22;37438;55.674;13.074;2023-08-31T07:05:14;21.10;99.90
20233;DHT22;37438;55.674;13.074;2023-08-31T07:08:19;21.00;99.90
20233;DHT22;37438;55.674;13.074;2023-08-31T07:11:23;20.90;99.90
20233;DHT22;37438;55.674;13.074;2023-08-31T07:14:28;20.60;99.90
20233;DHT22;37438;55.674;13.074;2023-08-31T07:17:33;20.30;99.90
20233;DHT22;37438;55.674;13.074;2023-08-31T07:20:37;20.20;99.90
20233;DHT22;37438;55.674;13.074;2023-08-31T07:23:42;20.20;99.90
20233;DHT22;37438;55.674;13.074;2023-08-31T07:26:47;20.00;99.90
20233;DHT22;37438;55.674;13.074;2023-08-31T07:29:54;20.10;99.90
20233;DHT22;37438;55.674;13.074;2023-08-31T07:32:58;20.10;1.00
20233;DHT22;37438;55.674;13.074;2023-08-31T07:36:20;20.00;99.90
20233;DHT22;37438;55.674;13.074;2023-08-31T07:39:24;20.00;99.90
20233;DHT22;37438;55.674;13.074;2023-08-31T07:42:29;20.00;99.90
20233;DHT22;37438;55.674;13.074;2023-08-31T07:45:34;20.10;99.90
20233;DHT22;37438;55.674;13.074;2023-08-31T07:48:42;20.20;99.90
20233;DHT22;37438;55.674;13.074;2023-08-31T07:51:46;20.10;99.90
20233;DHT22;37438;55.674;13.074;2023-08-31T07:54:50;20.30;99.90
20233;DHT22;37438;55.674;13.074;2023-08-31T07:57:54;20.50;99.90
20233;DHT22;37438;55.674;13.074;2023-08-31T08:00:59;20.80;99.90
20233;DHT22;37438;55.674;13.074;2023-08-31T08:04:04;21.10;27.70
20233;DHT22;37438;55.674;13.074;2023-08-31T08:07:09;20.80;99.90
20233;DHT22;37438;55.674;13.074;2023-08-31T08:10:13;20.60;99.90
20233;DHT22;37438;55.674;13.074;2023-08-31T08:13:19;20.60;95.70
20233;DHT22;37438;55.674;13.074;2023-08-31T08:16:23;21.00;66.60
20233;DHT22;37438;55.674;13.074;2023-08-31T08:19:28;21.50;99.90
20233;DHT22;37438;55.674;13.074;2023-08-31T08:22:32;21.50;99.90
20233;DHT22;37438;55.674;13.074;2023-08-31T08:25:37;21.40;99.90
20233;DHT22;37438;55.674;13.074;2023-08-31T08:28:41;21.70;99.90
20233;DHT22;37438;55.674;13.074;2023-08-31T08:31:46;21.50;99.90
20233;DHT22;37438;55.674;13.074;2023-08-31T08:34:51;21.60;99.90
20233;DHT22;37438;55.674;13.074;2023-08-31T08:37:55;21.70;99.90
20233;DHT22;37438;55.674;13.074;2023-08-31T08:41:04;22.30;99.90
20233;DHT22;37438;55.674;13.074;2023-08-31T08:44:08;22.20;41.80
20233;DHT22;37438;55.674;13.074;2023-08-31T08:47:14;21.60;99.90
20233;DHT22;37438;55.674;13.074;2023-08-31T08:50:19;21.60;99.90
20233;DHT22;37438;55.674;13.074;2023-08-31T08:53:25;21.80;99.90
20233;DHT22;37438;55.674;13.074;2023-08-31T08:56:29;21.60;99.90
20233;DHT22;37438;55.674;13.074;2023-08-31T08:59:34;21.30;99.90
20233;DHT22;37438;55.674;13.074;2023-08-31T09:02:38;21.20;99.90
20233;DHT22;37438;55.674;13.074;2023-08-31T09:05:43;21.00;99.90
20233;DHT22;37438;55.674;13.074;2023-08-31T09:08:56;21.00;99.90
20233;DHT22;37438;55.674;13.074;2023-08-31T09:12:07;20.90;99.90
20233;DHT22;37438;55.674;13.074;2023-08-31T09:15:14;20.80;99.90
20233;DHT22;37438;55.674;13.074;2023-08-31T09:18:26;20.50;99.90
20233;DHT22;37438;55.674;13.074;2023-08-31T09:21:37;20.10;1.00
20233;DHT22;37438;55.674;13.074;2023-08-31T09:24:46;19.70;99.90
20233;DHT22;37438;55.674;13.074;2023-08-31T09:27:50;19.40;99.90
20233;DHT22;37438;55.674;13.074;2023-08-31T09:31:06;19.10;99.90
20233;DHT22;37438;55.674;13.074;2023-08-31T09:34:11;18.70;99.90
20233;DHT22;37438;55.674;13.074;2023-08-31T09:37:16;18.30;99.90
20233;DHT22;37438;55.674;13.074;2023-08-31T09:40:20;18.00;99.90
20233;DHT22;37438;55.674;13.074;2023-08-31T09:43:25;17.80;99.90
20233;DHT22;37438;55.674;13.074;2023-08-31T09:46:29;17.40;99.90
20233;DHT22;37438;55.674;13.074;2023-08-31T09:49:34;17.40;99.90
20233;DHT22;37438;55.674;13.074;2023-08-31T09:52:39;17.30;99.90
20233;DHT22;37438;55.674;13.074;2023-08-31T09:55:47;17.20;99.90
20233;DHT22;37438;55.674;13.074;2023-08-31T09:58:51;17.00;99.90
20233;DHT22;37438;55.674;13.074;2023-08-31T10:01:56;17.10;99.90
20233;DHT22;37438;55.674;13.074;2023-08-31T10:05:00;17.10;99.90
20233;DHT22;37438;55.674;13.074;2023-08-31T10:08:07;17.20;99.90
20233;DHT22;37438;55.674;13.074;2023-08-31T10:11:12;17.20;99.90
20233;DHT22;37438;55.674;13.074;2023-08-31T10:14:18;17.30;99.90
20233;DHT22;37438;55.674;13.074;2023-08-31T10:17:25;17.50;99.90
20233;DHT22;37438;55.674;13.074;2023-08-31T10:20:32;17.70;99.90
20233;DHT22;37438;55.674;13.074;2023-08-31T10:23:45;17.80;99.90
20233;DHT22;37438;55.674;13.074;2023-08-31T10:26:49;17.80;99.90
20233;DHT22;37438;55.674;13.074;2023-08-31T10:29:54;17.90;99.90
20233;DHT22;37438;55.674;13.074;2023-08-31T10:33:20;18.00;99.90
20233;DHT22;37438;55.674;13.074;2023-08-31T10:39:39;18.10;99.90
20233;DHT22;37438;55.674;13.074;2023-08-31T10:42:44;18.30;99.90
20233;DHT22;37438;55.674;13.074;2023-08-31T10:45:50;18.20;99.90
20233;DHT22;37438;55.674;13.074;2023-08-31T10:52:19;18.30;99.90
20233;DHT22;37438;55.674;13.074;2023-08-31T10:55:31;18.20;99.90
20233;DHT22;37438;55.674;13.074;2023-08-31T10:58:36;18.20;99.90
20233;DHT22;37438;55.674;13.074;2023-08-31T11:01:59;18.20;99.90
20233;DHT22;37438;55.674;13.074;2023-08-31T11:05:19;18.20;99.90
20233;DHT22;37438;55.674;13.074;2023-08-31T11:08:28;18.20;99.90
20233;DHT22;37438;55.674;13.074;2023-08-31T11:11:39;18.10;99.90
20233;DHT22;37438;55.674;13.074;2023-08-31T11:14:43;18.20;99.90
20233;DHT22;37438;55.674;13.074;2023-08-31T11:17:53;18.00;99.90
20233;DHT22;37438;55.674;13.074;2023-08-31T11:20:58;18.20;99.90
20233;DHT22;37438;55.674;13.074;2023-08-31T11:24:04;18.00;99.90
20233;DHT22;37438;55.674;13.074;2023-08-31T11:27:09;18.00;99.90
20233;DHT22;37438;55.674;13.074;2023-08-31T11:30:17;18.00;99.90
20233;DHT22;37438;55.674;13.074;2023-08-31T11:33:21;18.00;99.90
20233;DHT22;37438;55.674;13.074;2023-08-31T11:36:26;18.20;99.90
20233;DHT22;37438;55.674;13.074;2023-08-31T11:39:30;18.40;99.90
20233;DHT22;37438;55.674;13.074;2023-08-31T11:42:37;18.50;99.90
20233;DHT22;37438;55.674;13.074;2023-08-31T11:45:41;18.40;99.90
20233;DHT22;37438;55.674;13.074;2023-08-31T11:48:46;18.30;99.90
20233;DHT22;37438;55.674;13.074;2023-08-31T11:51:51;18.30;99.90
20233;DHT22;37438;55.674;13.074;2023-08-31T11:54:55;18.30;99.90
20233;DHT22;37438;55.674;13.074;2023-08-31T11:57:59;18.40;99.90
20233;DHT22;37438;55.674;13.074;2023-08-31T12:01:04;18.50;99.90
20233;DHT22;37438;55.674;13.074;2023-08-31T12:04:10;18.50;99.90
20233;DHT22;37438;55.674;13.074;2023-08-31T12:07:18;18.70;99.90
20233;DHT22;37438;55.674;13.074;2023-08-31T12:10:26;18.70;99.90
20233;DHT22;37438;55.674;13.074;2023-08-31T12:13:31;18.90;99.90
20233;DHT22;37438;55.674;13.074;2023-08-31T12:16:36;18.90;99.90
20233;DHT22;37438;55.674;13.074;2023-08-31T12:19:41;18.90;99.90
20233;DHT22;37438;55.674;13.074;2023-08-31T12:22:45;19.10;99.90
20233;DHT22;37438;55.674;13.074;2023-08-31T12:25:51;19.20;99.90
20233;DHT22;37438;55.674;13.074;2023-08-31T12:28:56;19.20;99.90
20233;DHT22;37438;55.674;13.074;2023-08-31T12:32:01;19.30;99.90
20233;DHT22;37438;55.674;13.074;2023-08-31T12:35:07;19.50;99.90
20233;DHT22;37438;55.674;13.074;2023-08-31T12:38:11;19.70;99.90
20233;DHT22;37438;55.674;13.074;2023-08-31T12:41:17;19.90;99.90
20233;DHT22;37438;55.674;13.074;2023-08-31T12:44:21;19.80;99.90
20233;DHT22;37438;55.674;13.074;2023-08-31T12:47:26;20.00;99.90
20233;DHT22;37438;55.674;13.074;2023-08-31T12:50:31;19.80;99.90
20233;DHT22;37438;55.674;13.074;2023-08-31T12:53:38;19.90;99.90
20233;DHT22;37438;55.674;13.074;2023-08-31T12:56:43;20.00;99.90
20233;DHT22;37438;55.674;13.074;2023-08-31T12:59:48;20.00;99.90
20233;DHT22;37438;55.674;13.074;2023-08-31T13:02:52;20.00;99.90
20233;DHT22;37438;55.674;13.074;2023-08-31T13:05:56;19.90;99.90
20233;DHT22;37438;55.674;13.074;2023-08-31T13:09:02;20.00;99.90
20233;DHT22;37438;55.674;13.074;2023-08-31T13:12:07;20.00;99.90
20233;DHT22;37438;55.674;13.074;2023-08-31T13:15:12;20.00;99.90
20233;DHT22;37438;55.674;13.074;2023-08-31T13:18:17;20.00;99.90
20233;DHT22;37438;55.674;13.074;2023-08-31T13:21:21;19.90;99.90
20233;DHT22;37438;55.674;13.074;2023-08-31T13:24:26;19.80;99.90
20233;DHT22;37438;55.674;13.074;2023-08-31T13:27:30;19.80;99.90
20233;DHT22;37438;55.674;13.074;2023-08-31T13:30:37;19.70;99.90
20233;DHT22;37438;55.674;13.074;2023-08-31T13:33:42;19.70;99.90
20233;DHT22;37438;55.674;13.074;2023-08-31T13:36:47;19.60;99.90
20233;DHT22;37438;55.674;13.074;2023-08-31T13:39:51;19.60;99.90
20233;DHT22;37438;55.674;13.074;2023-08-31T13:42:59;19.50;99.90
20233;DHT22;37438;55.674;13.074;2023-08-31T13:46:09;19.50;99.90
20233;DHT22;37438;55.674;13.074;2023-08-31T13:49:14;19.50;99.90
20233;DHT22;37438;55.674;13.074;2023-08-31T13:52:19;19.40;99.90
20233;DHT22;37438;55.674;13.074;2023-08-31T13:55:25;19.40;99.90
20233;DHT22;37438;55.674;13.074;2023-08-31T13:58:31;19.40;99.90
20233;DHT22;37438;55.674;13.074;2023-08-31T14:01:35;19.50;99.90
20233;DHT22;37438;55.674;13.074;2023-08-31T14:04:42;19.30;99.90
20233;DHT22;37438;55.674;13.074;2023-08-31T14:07:47;19.30;99.90
20233;DHT22;37438;55.674;13.074;2023-08-31T14:10:53;19.40;99.90
20233;DHT22;37438;55.674;13.074;2023-08-31T14:14:05;19.30;99.90
20233;DHT22;37438;55.674;13.074;2023-08-31T14:17:13;19.20;99.90
20233;DHT22;37438;55.674;13.074;2023-08-31T14:20:18;19.30;99.90
20233;DHT22;37438;55.674;13.074;2023-08-31T14:23:22;19.30;99.90
20233;DHT22;37438;55.674;13.074;2023-08-31T14:26:26;19.30;99.90
20233;DHT22;37438;55.674;13.074;2023-08-31T14:29:30;19.30;99.90
20233;DHT22;37438;55.674;13.074;2023-08-31T14:32:36;19.30;99.90
20233;DHT22;37438;55.674;13.074;2023-08-31T14:35:40;19.20;99.90
20233;DHT22;37438;55.674;13.074;2023-08-31T14:38:45;19.10;99.90
20233;DHT22;37438;55.674;13.074;2023-08-31T14:41:49;19.10;99.90
20233;DHT22;37438;55.674;13.074;2023-08-31T14:44:54;19.10;99.90
20233;DHT22;37438;55.674;13.074;2023-08-31T14:47:58;19.10;99.90
20233;DHT22;37438;55.674;13.074;2023-08-31T14:51:03;18.90;99.90
20233;DHT22;37438;55.674;13.074;2023-08-31T14:54:07;19.00;99.90
20233;DHT22;37438;55.674;13.074;2023-08-31T14:57:11;18.80;99.90
20233;DHT22;37438;55.674;13.074;2023-08-31T15:00:16;18.70;99.90
20233;DHT22;37438;55.674;13.074;2023-08-31T15:03:21;18.40;99.90
20233;DHT22;37438;55.674;13.074;2023-08-31T15:06:26;18.20;99.90
20233;DHT22;37438;55.674;13.074;2023-08-31T15:09:31;18.20;99.90
20233;DHT22;37438;55.674;13.074;2023-08-31T15:12:35;18.10;99.90
20233;DHT22;37438;55.674;13.074;2023-08-31T15:15:44;18.20;99.90
20233;DHT22;37438;55.674;13.074;2023-08-31T15:18:48;18.20;99.90
20233;DHT22;37438;55.674;13.074;2023-08-31T15:21:53;18.10;99.90
20233;DHT22;37438;55.674;13.074;2023-08-31T15:24:57;18.40;99.90
20233;DHT22;37438;55.674;13.074;2023-08-31T15:28:02;18.50;99.90
20233;DHT22;37438;55.674;13.074;2023-08-31T15:31:14;18.40;99.90
20233;DHT22;37438;55.674;13.074;2023-08-31T15:34:20;18.30;99.90
20233;DHT22;37438;55.674;13.074;2023-08-31T15:37:24;18.30;99.90
20233;DHT22;37438;55.674;13.074;2023-08-31T15:40:29;18.50;99.90
20233;DHT22;37438;55.674;13.074;2023-08-31T15:43:34;18.60;99.90
20233;DHT22;37438;55.674;13.074;2023-08-31T15:46:39;18.30;99.90
20233;DHT22;37438;55.674;13.074;2023-08-31T15:49:44;18.20;99.90
20233;DHT22;37438;55.674;13.074;2023-08-31T15:52:49;18.30;99.90
20233;DHT22;37438;55.674;13.074;2023-08-31T15:55:55;18.30;99.90
20233;DHT22;37438;55.674;13.074;2023-08-31T15:59:00;18.00;99.90
20233;DHT22;37438;55.674;13.074;2023-08-31T16:02:04;18.10;99.90
20233;DHT22;37438;55.674;13.074;2023-08-31T16:05:09;18.10;99.90
20233;DHT22;37438;55.674;13.074;2023-08-31T16:08:14;18.20;99.90
20233;DHT22;37438;55.674;13.074;2023-08-31T16:11:19;18.10;99.90
20233;DHT22;37438;55.674;13.074;2023-08-31T16:14:26;18.10;99.90
20233;DHT22;37438;55.674;13.074;2023-08-31T16:17:31;18.00;99.90
20233;DHT22;37438;55.674;13.074;2023-08-31T16:20:35;18.00;99.90
20233;DHT22;37438;55.674;13.074;2023-08-31T16:23:40;18.10;99.90
20233;DHT22;37438;55.674;13.074;2023-08-31T16:26:44;18.10;99.90
20233;DHT22;37438;55.674;13.074;2023-08-31T16:29:49;18.20;99.90
20233;DHT22;37438;55.674;13.074;2023-08-31T16:32:55;18.20;99.90
20233;DHT22;37438;55.674;13.074;2023-08-31T16:36:01;18.20;99.90
20233;DHT22;37438;55.674;13.074;2023-08-31T16:39:08;18.10;99.90
20233;DHT22;37438;55.674;13.074;2023-08-31T16:42:12;18.10;99.90
20233;DHT22;37438;55.674;13.074;2023-08-31T16:45:19;18.10;99.90
20233;DHT22;37438;55.674;13.074;2023-08-31T16:48:27;18.10;99.90
20233;DHT22;37438;55.674;13.074;2023-08-31T16:51:31;18.10;99.90
20233;DHT22;37438;55.674;13.074;2023-08-31T16:54:35;18.10;99.90
20233;DHT22;37438;55.674;13.074;2023-08-31T16:57:40;18.00;99.90
20233;DHT22;37438;55.674;13.074;2023-08-31T17:00:44;18.10;99.90
20233;DHT22;37438;55.674;13.074;2023-08-31T17:03:48;18.10;99.90
20233;DHT22;37438;55.674;13.074;2023-08-31T17:06:53;18.00;99.90
20233;DHT22;37438;55.674;13.074;2023-08-31T17:09:58;18.00;99.90
20233;DHT22;37438;55.674;13.074;2023-08-31T17:13:03;18.00;99.90
20233;DHT22;37438;55.674;13.074;2023-08-31T17:16:11;17.90;99.90
20233;DHT22;37438;55.674;13.074;2023-08-31T17:19:16;18.00;99.90
20233;DHT22;37438;55.674;13.074;2023-08-31T17:22:20;17.80;99.90
20233;DHT22;37438;55.674;13.074;2023-08-31T17:25:25;17.80;99.90
20233;DHT22;37438;55.674;13.074;2023-08-31T17:28:29;17.90;99.90
20233;DHT22;37438;55.674;13.074;2023-08-31T17:31:33;17.80;99.90
20233;DHT22;37438;55.674;13.074;2023-08-31T17:34:38;17.90;99.90
20233;DHT22;37438;55.674;13.074;2023-08-31T17:37:42;18.00;99.90
20233;DHT22;37438;55.674;13.074;2023-08-31T17:40:47;18.00;99.90
20233;DHT22;37438;55.674;13.074;2023-08-31T17:43:52;18.10;99.90
20233;DHT22;37438;55.674;13.074;2023-08-31T17:46:57;18.10;99.90
20233;DHT22;37438;55.674;13.074;2023-08-31T17:50:01;18.10;99.90
20233;DHT22;37438;55.674;13.074;2023-08-31T17:53:07;18.20;99.90
20233;DHT22;37438;55.674;13.074;2023-08-31T17:56:12;18.10;99.90
20233;DHT22;37438;55.674;13.074;2023-08-31T17:59:16;18.10;99.90
20233;DHT22;37438;55.674;13.074;2023-08-31T18:02:22;18.00;99.90
20233;DHT22;37438;55.674;13.074;2023-08-31T18:05:26;18.00;99.90
20233;DHT22;37438;55.674;13.074;2023-08-31T18:08:31;18.00;99.90
20233;DHT22;37438;55.674;13.074;2023-08-31T18:11:37;18.00;99.90
20233;DHT22;37438;55.674;13.074;2023-08-31T18:14:42;18.00;99.90
20233;DHT22;37438;55.674;13.074;2023-08-31T18:17:48;17.90;99.90
20233;DHT22;37438;55.674;13.074;2023-08-31T18:20:56;17.90;99.90
20233;DHT22;37438;55.674;13.074;2023-08-31T18:24:01;17.90;99.90
20233;DHT22;37438;55.674;13.074;2023-08-31T18:27:05;17.90;99.90
20233;DHT22;37438;55.674;13.074;2023-08-31T18:30:14;17.80;99.90
20233;DHT22;37438;55.674;13.074;2023-08-31T18:33:18;17.80;99.90
20233;DHT22;37438;55.674;13.074;2023-08-31T18:36:24;17.70;99.90
20233;DHT22;37438;55.674;13.074;2023-08-31T18:39:29;17.70;99.90
20233;DHT22;37438;55.674;13.074;2023-08-31T18:42:33;17.70;99.90
20233;DHT22;37438;55.674;13.074;2023-08-31T18:45:46;17.70;99.90
20233;DHT22;37438;55.674;13.074;2023-08-31T18:48:51;17.70;99.90
20233;DHT22;37438;55.674;13.074;2023-08-31T18:51:56;17.70;99.90
20233;DHT22;37438;55.674;13.074;2023-08-31T18:55:01;17.70;99.90
20233;DHT22;37438;55.674;13.074;2023-08-31T18:58:05;17.60;99.90
20233;DHT22;37438;55.674;13.074;2023-08-31T19:01:10;17.70;99.90
20233;DHT22;37438;55.674;13.074;2023-08-31T19:04:14;17.70;99.90
20233;DHT22;37438;55.674;13.074;2023-08-31T19:07:19;17.60;99.90
20233;DHT22;37438;55.674;13.074;2023-08-31T19:10:23;17.60;99.90
20233;DHT22;37438;55.674;13.074;2023-08-31T19:13:27;17.60;99.90
20233;DHT22;37438;55.674;13.074;2023-08-31T19:16:31;17.70;99.90
20233;DHT22;37438;55.674;13.074;2023-08-31T19:19:36;17.60;99.90
20233;DHT22;37438;55.674;13.074;2023-08-31T19:22:43;17.60;99.90
20233;DHT22;37438;55.674;13.074;2023-08-31T19:25:48;17.60;99.90